sensor_id;sensor_type;location;lat;lon;timestamp;temperature;humidity
32811;DHT22;65470;47.324;8.548;2023-01-25T00:01:52;4.60;99.90
32811;DHT22;65470;47.324;8.548;2023-01-25T00:04:19;4.60;99.90
32811;DHT22;65470;47.324;8.548;2023-01-25T00:06:45;4.70;99.90
32811;DHT22;65470;47.324;8.548;2023-01-25T00:09:11;4.60;99.90
32811;DHT22;65470;47.324;8.548;2023-01-25T00:11:37;4.60;99.90
32811;DHT22;65470;47.324;8.548;2023-01-25T00:14:04;4.70;99.90
32811;DHT22;65470;47.324;8.548;2023-01-25T00:16:30;4.60;99.90
32811;DHT22;65470;47.324;8.548;2023-01-25T00:18:55;4.60;99.90
32811;DHT22;65470;47.324;8.548;2023-01-25T00:21:23;4.40;99.90
32811;DHT22;65470;47.324;8.548;2023-01-25T00:23:49;4.50;99.90
32811;DHT22;65470;47.324;8.548;2023-01-25T00:26:15;4.50;99.90
32811;DHT22;65470;47.324;8.548;2023-01-25T00:28:41;4.50;99.90
32811;DHT22;65470;47.324;8.548;2023-01-25T00:31:09;4.40;99.90
32811;DHT22;65470;47.324;8.548;2023-01-25T00:34:05;4.40;99.90
32811;DHT22;65470;47.324;8.548;2023-01-25T00:39:04;4.30;99.90
32811;DHT22;65470;47.324;8.548;2023-01-25T00:41:29;4.40;99.90
32811;DHT22;65470;47.324;8.548;2023-01-25T00:43:55;4.40;99.90
32811;DHT22;65470;47.324;8.548;2023-01-25T00:46:21;4.40;99.90
32811;DHT22;65470;47.324;8.548;2023-01-25T00:48:47;4.40;99.90
32811;DHT22;65470;47.324;8.548;2023-01-25T00:51:13;4.40;99.90
32811;DHT22;65470;47.324;8.548;2023-01-25T00:53:40;4.50;99.90
32811;DHT22;65470;47.324;8.548;2023-01-25T00:56:06;4.50;99.90
32811;DHT22;65470;47.324;8.548;2023-01-25T00:58:32;4.50;99.90
32811;DHT22;65470;47.324;8.548;2023-01-25T01:00:57;4.40;99.90
32811;DHT22;65470;47.324;8.548;2023-01-25T01:03:23;4.40;99.90
32811;DHT22;65470;47.324;8.548;2023-01-25T01:06:05;4.40;99.90
32811;DHT22;65470;47.324;8.548;2023-01-25T01:08:37;4.40;99.90
32811;DHT22;65470;47.324;8.548;2023-01-25T01:11:05;4.40;99.90
32811;DHT22;65470;47.324;8.548;2023-01-25T01:13:31;4.40;99.90
32811;DHT22;65470;47.324;8.548;2023-01-25T01:16:00;4.30;99.90
32811;DHT22;65470;47.324;8.548;2023-01-25T01:18:28;4.40;99.90
32811;DHT22;65470;47.324;8.548;2023-01-25T01:20:54;4.40;99.90
32811;DHT22;65470;47.324;8.548;2023-01-25T01:23:20;4.40;99.90
32811;DHT22;65470;47.324;8.548;2023-01-25T01:25:46;4.40;99.90
32811;DHT22;65470;47.324;8.548;2023-01-25T01:28:12;4.50;99.90
32811;DHT22;65470;47.324;8.548;2023-01-25T01:30:38;4.50;99.90
32811;DHT22;65470;47.324;8.548;2023-01-25T01:33:04;4.60;99.90
32811;DHT22;65470;47.324;8.548;2023-01-25T01:35:30;4.60;99.90
32811;DHT22;65470;47.324;8.548;2023-01-25T01:37:56;4.60;99.90
32811;DHT22;65470;47.324;8.548;2023-01-25T01:40:22;4.60;99.90
32811;DHT22;65470;47.324;8.548;2023-01-25T01:43:01;4.50;99.90
32811;DHT22;65470;47.324;8.548;2023-01-25T01:46:03;4.50;99.90
32811;DHT22;65470;47.324;8.548;2023-01-25T01:49:03;4.50;99.90
32811;DHT22;65470;47.324;8.548;2023-01-25T01:54:07;4.40;99.90
32811;DHT22;65470;47.324;8.548;2023-01-25T01:56:38;4.40;99.90
32811;DHT22;65470;47.324;8.548;2023-01-25T01:59:05;4.40;99.90
32811;DHT22;65470;47.324;8.548;2023-01-25T02:01:32;4.50;99.90
32811;DHT22;65470;47.324;8.548;2023-01-25T02:03:59;4.50;99.90
32811;DHT22;65470;47.324;8.548;2023-01-25T02:06:46;4.50;99.90
32811;DHT22;65470;47.324;8.548;2023-01-25T02:09:17;4.50;99.90
32811;DHT22;65470;47.324;8.548;2023-01-25T02:11:43;4.60;99.90
32811;DHT22;65470;47.324;8.548;2023-01-25T02:14:09;4.60;99.90
32811;DHT22;65470;47.324;8.548;2023-01-25T02:16:35;4.60;99.90
32811;DHT22;65470;47.324;8.548;2023-01-25T02:19:01;4.70;99.90
32811;DHT22;65470;47.324;8.548;2023-01-25T02:21:34;4.70;99.90
32811;DHT22;65470;47.324;8.548;2023-01-25T02:24:26;4.60;99.90
32811;DHT22;65470;47.324;8.548;2023-01-25T02:26:53;4.60;99.90
32811;DHT22;65470;47.324;8.548;2023-01-25T02:29:20;4.60;99.90
32811;DHT22;65470;47.324;8.548;2023-01-25T02:31:48;4.60;99.90
32811;DHT22;65470;47.324;8.548;2023-01-25T02:34:17;4.60;99.90
32811;DHT22;65470;47.324;8.548;2023-01-25T02:36:43;4.50;99.90
32811;DHT22;65470;47.324;8.548;2023-01-25T02:39:18;4.50;99.90
32811;DHT22;65470;47.324;8.548;2023-01-25T02:41:44;4.50;99.90
32811;DHT22;65470;47.324;8.548;2023-01-25T02:44:17;4.50;99.90
32811;DHT22;65470;47.324;8.548;2023-01-25T02:46:44;4.40;99.90
32811;DHT22;65470;47.324;8.548;2023-01-25T02:49:11;4.40;99.90
32811;DHT22;65470;47.324;8.548;2023-01-25T02:51:40;4.20;99.90
32811;DHT22;65470;47.324;8.548;2023-01-25T02:54:08;4.20;99.90
32811;DHT22;65470;47.324;8.548;2023-01-25T02:56:34;4.30;99.90
32811;DHT22;65470;47.324;8.548;2023-01-25T02:59:00;4.10;99.90
32811;DHT22;65470;47.324;8.548;2023-01-25T03:04:51;4.10;99.90
32811;DHT22;65470;47.324;8.548;2023-01-25T03:07:17;4.20;99.90
32811;DHT22;65470;47.324;8.548;2023-01-25T03:09:42;4.10;99.90
32811;DHT22;65470;47.324;8.548;2023-01-25T03:12:08;4.10;99.90
32811;DHT22;65470;47.324;8.548;2023-01-25T03:14:34;4.10;99.90
32811;DHT22;65470;47.324;8.548;2023-01-25T03:16:59;4.10;99.90
32811;DHT22;65470;47.324;8.548;2023-01-25T03:19:25;4.10;99.90
32811;DHT22;65470;47.324;8.548;2023-01-25T03:21:50;4.10;99.90
32811;DHT22;65470;47.324;8.548;2023-01-25T03:24:16;4.10;99.90
32811;DHT22;65470;47.324;8.548;2023-01-25T03:26:42;4.10;99.90
32811;DHT22;65470;47.324;8.548;2023-01-25T03:29:26;4.00;99.90
32811;DHT22;65470;47.324;8.548;2023-01-25T03:31:52;4.00;99.90
32811;DHT22;65470;47.324;8.548;2023-01-25T03:34:17;4.00;99.90
32811;DHT22;65470;47.324;8.548;2023-01-25T03:36:43;3.90;99.90
32811;DHT22;65470;47.324;8.548;2023-01-25T03:39:09;4.00;99.90
32811;DHT22;65470;47.324;8.548;2023-01-25T03:41:34;4.00;99.90
32811;DHT22;65470;47.324;8.548;2023-01-25T03:44:00;4.00;99.90
32811;DHT22;65470;47.324;8.548;2023-01-25T03:46:26;4.10;99.90
32811;DHT22;65470;47.324;8.548;2023-01-25T03:48:51;4.10;99.90
32811;DHT22;65470;47.324;8.548;2023-01-25T03:51:17;4.20;99.90
32811;DHT22;65470;47.324;8.548;2023-01-25T03:53:43;4.20;99.90
32811;DHT22;65470;47.324;8.548;2023-01-25T03:56:10;4.10;99.90
32811;DHT22;65470;47.324;8.548;2023-01-25T03:58:38;4.20;99.90
32811;DHT22;65470;47.324;8.548;2023-01-25T04:01:05;4.30;99.90
32811;DHT22;65470;47.324;8.548;2023-01-25T04:03:31;4.30;99.90
32811;DHT22;65470;47.324;8.548;2023-01-25T04:05:57;4.30;99.90
32811;DHT22;65470;47.324;8.548;2023-01-25T04:08:23;4.30;99.90
32811;DHT22;65470;47.324;8.548;2023-01-25T04:10:54;4.20;99.90
32811;DHT22;65470;47.324;8.548;2023-01-25T04:13:21;4.20;99.90
32811;DHT22;65470;47.324;8.548;2023-01-25T04:15:47;4.20;99.90
32811;DHT22;65470;47.324;8.548;2023-01-25T04:18:13;4.20;99.90
32811;DHT22;65470;47.324;8.548;2023-01-25T04:20:39;4.20;99.90
32811;DHT22;65470;47.324;8.548;2023-01-25T04:23:04;4.20;99.90
32811;DHT22;65470;47.324;8.548;2023-01-25T04:25:31;4.20;99.90
32811;DHT22;65470;47.324;8.548;2023-01-25T04:27:57;4.30;99.90
32811;DHT22;65470;47.324;8.548;2023-01-25T04:30:23;4.20;99.90
32811;DHT22;65470;47.324;8.548;2023-01-25T04:32:48;4.20;99.90
32811;DHT22;65470;47.324;8.548;2023-01-25T04:35:14;4.30;99.90
32811;DHT22;65470;47.324;8.548;2023-01-25T04:37:40;4.20;99.90
32811;DHT22;65470;47.324;8.548;2023-01-25T04:40:07;4.30;99.90
32811;DHT22;65470;47.324;8.548;2023-01-25T04:42:33;4.30;99.90
32811;DHT22;65470;47.324;8.548;2023-01-25T04:44:59;4.30;99.90
32811;DHT22;65470;47.324;8.548;2023-01-25T04:47:24;4.20;99.90
32811;DHT22;65470;47.324;8.548;2023-01-25T04:49:50;4.20;99.90
32811;DHT22;65470;47.324;8.548;2023-01-25T04:52:15;4.20;99.90
32811;DHT22;65470;47.324;8.548;2023-01-25T04:54:41;4.10;99.90
32811;DHT22;65470;47.324;8.548;2023-01-25T04:57:07;4.10;99.90
32811;DHT22;65470;47.324;8.548;2023-01-25T04:59:32;4.20;99.90
32811;DHT22;65470;47.324;8.548;2023-01-25T05:01:58;4.20;99.90
32811;DHT22;65470;47.324;8.548;2023-01-25T05:04:23;4.10;99.90
32811;DHT22;65470;47.324;8.548;2023-01-25T05:06:49;4.10;99.90
32811;DHT22;65470;47.324;8.548;2023-01-25T05:09:15;4.10;99.90
32811;DHT22;65470;47.324;8.548;2023-01-25T05:11:41;4.00;99.90
32811;DHT22;65470;47.324;8.548;2023-01-25T05:14:07;4.10;99.90
32811;DHT22;65470;47.324;8.548;2023-01-25T05:16:32;4.10;99.90
32811;DHT22;65470;47.324;8.548;2023-01-25T05:18:58;4.00;99.90
32811;DHT22;65470;47.324;8.548;2023-01-25T05:21:24;3.90;99.90
32811;DHT22;65470;47.324;8.548;2023-01-25T05:24:08;3.90;99.90
32811;DHT22;65470;47.324;8.548;2023-01-25T05:26:33;3.90;99.90
32811;DHT22;65470;47.324;8.548;2023-01-25T05:29:18;3.90;99.90
32811;DHT22;65470;47.324;8.548;2023-01-25T05:31:43;4.00;99.90
32811;DHT22;65470;47.324;8.548;2023-01-25T05:34:09;4.00;99.90
32811;DHT22;65470;47.324;8.548;2023-01-25T05:36:34;4.00;99.90
32811;DHT22;65470;47.324;8.548;2023-01-25T05:39:00;4.00;99.90
32811;DHT22;65470;47.324;8.548;2023-01-25T05:41:26;3.90;99.90
32811;DHT22;65470;47.324;8.548;2023-01-25T05:43:51;3.90;99.90
32811;DHT22;65470;47.324;8.548;2023-01-25T05:46:17;3.90;99.90
32811;DHT22;65470;47.324;8.548;2023-01-25T05:48:42;4.00;99.90
32811;DHT22;65470;47.324;8.548;2023-01-25T05:51:08;4.00;99.90
32811;DHT22;65470;47.324;8.548;2023-01-25T05:53:34;4.00;99.90
32811;DHT22;65470;47.324;8.548;2023-01-25T05:56:06;3.90;99.90
32811;DHT22;65470;47.324;8.548;2023-01-25T05:58:32;4.00;99.90
32811;DHT22;65470;47.324;8.548;2023-01-25T06:00:59;4.00;99.90
32811;DHT22;65470;47.324;8.548;2023-01-25T06:03:25;4.10;99.90
32811;DHT22;65470;47.324;8.548;2023-01-25T06:05:55;4.20;99.90
32811;DHT22;65470;47.324;8.548;2023-01-25T06:08:22;4.20;99.90
32811;DHT22;65470;47.324;8.548;2023-01-25T06:10:47;4.20;99.90
32811;DHT22;65470;47.324;8.548;2023-01-25T06:13:13;4.20;99.90
32811;DHT22;65470;47.324;8.548;2023-01-25T06:15:38;4.30;99.90
32811;DHT22;65470;47.324;8.548;2023-01-25T06:18:04;4.30;99.90
32811;DHT22;65470;47.324;8.548;2023-01-25T06:20:30;4.30;99.90
32811;DHT22;65470;47.324;8.548;2023-01-25T06:22:55;4.30;99.90
32811;DHT22;65470;47.324;8.548;2023-01-25T06:25:21;4.30;99.90
32811;DHT22;65470;47.324;8.548;2023-01-25T06:27:47;4.20;99.90
32811;DHT22;65470;47.324;8.548;2023-01-25T06:30:12;4.30;99.90
32811;DHT22;65470;47.324;8.548;2023-01-25T06:32:38;4.30;99.90
32811;DHT22;65470;47.324;8.548;2023-01-25T06:35:04;4.30;99.90
32811;DHT22;65470;47.324;8.548;2023-01-25T06:37:30;4.30;99.90
32811;DHT22;65470;47.324;8.548;2023-01-25T06:39:55;4.30;99.90
32811;DHT22;65470;47.324;8.548;2023-01-25T06:42:23;4.30;99.90
32811;DHT22;65470;47.324;8.548;2023-01-25T06:44:48;4.30;99.90
32811;DHT22;65470;47.324;8.548;2023-01-25T06:47:15;4.30;99.90
32811;DHT22;65470;47.324;8.548;2023-01-25T06:49:40;4.30;99.90
32811;DHT22;65470;47.324;8.548;2023-01-25T06:52:06;4.30;99.90
32811;DHT22;65470;47.324;8.548;2023-01-25T06:54:32;4.30;99.90
32811;DHT22;65470;47.324;8.548;2023-01-25T06:56:58;4.30;99.90
32811;DHT22;65470;47.324;8.548;2023-01-25T06:59:23;4.30;99.90
32811;DHT22;65470;47.324;8.548;2023-01-25T07:01:49;4.30;99.90
32811;DHT22;65470;47.324;8.548;2023-01-25T07:04:15;4.30;99.90
32811;DHT22;65470;47.324;8.548;2023-01-25T07:06:40;4.20;99.90
32811;DHT22;65470;47.324;8.548;2023-01-25T07:09:08;4.20;99.90
32811;DHT22;65470;47.324;8.548;2023-01-25T07:11:34;4.20;99.90
32811;DHT22;65470;47.324;8.548;2023-01-25T07:14:00;4.20;99.90
32811;DHT22;65470;47.324;8.548;2023-01-25T07:16:26;4.20;99.90
32811;DHT22;65470;47.324;8.548;2023-01-25T07:18:52;4.10;99.90
32811;DHT22;65470;47.324;8.548;2023-01-25T07:21:20;4.20;99.90
32811;DHT22;65470;47.324;8.548;2023-01-25T07:23:46;4.20;99.90
32811;DHT22;65470;47.324;8.548;2023-01-25T07:26:17;4.20;99.90
32811;DHT22;65470;47.324;8.548;2023-01-25T07:28:44;4.30;99.90
32811;DHT22;65470;47.324;8.548;2023-01-25T07:31:10;4.30;99.90
32811;DHT22;65470;47.324;8.548;2023-01-25T07:33:36;4.30;99.90
32811;DHT22;65470;47.324;8.548;2023-01-25T07:36:06;4.30;99.90
32811;DHT22;65470;47.324;8.548;2023-01-25T07:38:33;4.40;99.90
32811;DHT22;65470;47.324;8.548;2023-01-25T07:40:59;4.40;99.90
32811;DHT22;65470;47.324;8.548;2023-01-25T07:43:25;4.40;99.90
32811;DHT22;65470;47.324;8.548;2023-01-25T07:45:51;4.40;99.90
32811;DHT22;65470;47.324;8.548;2023-01-25T07:48:18;4.40;99.90
32811;DHT22;65470;47.324;8.548;2023-01-25T07:50:44;4.30;99.90
32811;DHT22;65470;47.324;8.548;2023-01-25T07:53:12;4.40;99.90
32811;DHT22;65470;47.324;8.548;2023-01-25T07:55:38;4.30;99.90
32811;DHT22;65470;47.324;8.548;2023-01-25T07:58:03;4.40;99.90
32811;DHT22;65470;47.324;8.548;2023-01-25T08:00:29;4.40;99.90
32811;DHT22;65470;47.324;8.548;2023-01-25T08:02:55;4.30;99.90
32811;DHT22;65470;47.324;8.548;2023-01-25T08:05:20;4.40;99.90
32811;DHT22;65470;47.324;8.548;2023-01-25T08:07:46;4.40;99.90
32811;DHT22;65470;47.324;8.548;2023-01-25T08:10:13;4.50;99.90
32811;DHT22;65470;47.324;8.548;2023-01-25T08:12:39;4.50;99.90
32811;DHT22;65470;47.324;8.548;2023-01-25T08:15:05;4.50;99.90
32811;DHT22;65470;47.324;8.548;2023-01-25T08:17:31;4.40;99.90
32811;DHT22;65470;47.324;8.548;2023-01-25T08:19:58;4.50;99.90
32811;DHT22;65470;47.324;8.548;2023-01-25T08:22:24;4.50;99.90
32811;DHT22;65470;47.324;8.548;2023-01-25T08:24:50;4.50;99.90
32811;DHT22;65470;47.324;8.548;2023-01-25T08:27:16;4.50;99.90
32811;DHT22;65470;47.324;8.548;2023-01-25T08:29:41;4.50;99.90
32811;DHT22;65470;47.324;8.548;2023-01-25T08:32:07;4.50;99.90
32811;DHT22;65470;47.324;8.548;2023-01-25T08:34:33;4.60;99.90
32811;DHT22;65470;47.324;8.548;2023-01-25T08:36:59;4.60;99.90
32811;DHT22;65470;47.324;8.548;2023-01-25T08:39:25;4.60;99.90
32811;DHT22;65470;47.324;8.548;2023-01-25T08:41:51;4.60;99.90
32811;DHT22;65470;47.324;8.548;2023-01-25T08:44:17;4.50;99.90
32811;DHT22;65470;47.324;8.548;2023-01-25T08:46:47;4.50;99.90
32811;DHT22;65470;47.324;8.548;2023-01-25T08:49:12;4.60;99.90
32811;DHT22;65470;47.324;8.548;2023-01-25T08:51:38;4.50;99.90
32811;DHT22;65470;47.324;8.548;2023-01-25T08:54:05;4.50;99.90
32811;DHT22;65470;47.324;8.548;2023-01-25T08:56:31;4.60;99.90
32811;DHT22;65470;47.324;8.548;2023-01-25T08:58:57;4.70;99.90
32811;DHT22;65470;47.324;8.548;2023-01-25T09:01:23;4.50;99.90
32811;DHT22;65470;47.324;8.548;2023-01-25T09:03:49;4.60;99.90
32811;DHT22;65470;47.324;8.548;2023-01-25T09:06:16;4.60;99.90
32811;DHT22;65470;47.324;8.548;2023-01-25T09:08:42;4.50;99.90
32811;DHT22;65470;47.324;8.548;2023-01-25T09:11:16;4.60;99.90
32811;DHT22;65470;47.324;8.548;2023-01-25T09:13:42;4.60;99.90
32811;DHT22;65470;47.324;8.548;2023-01-25T09:16:10;4.60;99.90
32811;DHT22;65470;47.324;8.548;2023-01-25T09:18:38;4.70;99.90
32811;DHT22;65470;47.324;8.548;2023-01-25T09:21:07;4.70;99.90
32811;DHT22;65470;47.324;8.548;2023-01-25T09:23:33;4.70;99.90
32811;DHT22;65470;47.324;8.548;2023-01-25T09:26:00;4.70;99.90
32811;DHT22;65470;47.324;8.548;2023-01-25T09:28:27;4.70;99.90
32811;DHT22;65470;47.324;8.548;2023-01-25T09:30:58;4.80;99.90
32811;DHT22;65470;47.324;8.548;2023-01-25T09:33:30;4.80;99.90
32811;DHT22;65470;47.324;8.548;2023-01-25T09:35:56;4.90;99.90
32811;DHT22;65470;47.324;8.548;2023-01-25T09:38:22;4.90;99.90
32811;DHT22;65470;47.324;8.548;2023-01-25T09:49:23;4.80;99.90
32811;DHT22;65470;47.324;8.548;2023-01-25T09:54:44;4.80;99.90
32811;DHT22;65470;47.324;8.548;2023-01-25T09:57:34;4.80;99.90
32811;DHT22;65470;47.324;8.548;2023-01-25T10:00:05;4.70;99.90
32811;DHT22;65470;47.324;8.548;2023-01-25T10:05:47;4.70;99.90
32811;DHT22;65470;47.324;8.548;2023-01-25T10:10:54;4.80;99.90
32811;DHT22;65470;47.324;8.548;2023-01-25T10:13:23;4.90;99.90
32811;DHT22;65470;47.324;8.548;2023-01-25T10:15:54;4.80;99.90
32811;DHT22;65470;47.324;8.548;2023-01-25T10:18:36;4.70;99.90
32811;DHT22;65470;47.324;8.548;2023-01-25T10:21:13;4.80;99.90
32811;DHT22;65470;47.324;8.548;2023-01-25T10:26:36;4.80;99.90
32811;DHT22;65470;47.324;8.548;2023-01-25T10:29:20;4.80;99.90
32811;DHT22;65470;47.324;8.548;2023-01-25T10:31:51;4.80;99.90
32811;DHT22;65470;47.324;8.548;2023-01-25T10:34:28;4.80;99.90
32811;DHT22;65470;47.324;8.548;2023-01-25T10:37:02;4.80;99.90
32811;DHT22;65470;47.324;8.548;2023-01-25T10:39:28;4.80;99.90
32811;DHT22;65470;47.324;8.548;2023-01-25T10:41:59;4.90;99.90
32811;DHT22;65470;47.324;8.548;2023-01-25T10:44:25;4.90;99.90
32811;DHT22;65470;47.324;8.548;2023-01-25T10:49:50;5.00;99.90
32811;DHT22;65470;47.324;8.548;2023-01-25T10:52:25;4.90;99.90
32811;DHT22;65470;47.324;8.548;2023-01-25T10:55:13;4.90;99.90
32811;DHT22;65470;47.324;8.548;2023-01-25T10:57:42;5.00;99.90
32811;DHT22;65470;47.324;8.548;2023-01-25T11:00:37;4.90;99.90
32811;DHT22;65470;47.324;8.548;2023-01-25T11:03:04;4.70;99.90
32811;DHT22;65470;47.324;8.548;2023-01-25T11:05:35;4.70;99.90
32811;DHT22;65470;47.324;8.548;2023-01-25T11:08:24;4.70;99.90
32811;DHT22;65470;47.324;8.548;2023-01-25T11:10:52;4.70;99.90
32811;DHT22;65470;47.324;8.548;2023-01-25T11:13:25;4.80;99.90
32811;DHT22;65470;47.324;8.548;2023-01-25T11:18:32;4.80;99.90
32811;DHT22;65470;47.324;8.548;2023-01-25T11:21:04;4.90;99.90
32811;DHT22;65470;47.324;8.548;2023-01-25T11:23:30;4.90;99.90
32811;DHT22;65470;47.324;8.548;2023-01-25T11:26:12;5.00;99.90
32811;DHT22;65470;47.324;8.548;2023-01-25T11:28:38;5.10;99.90
32811;DHT22;65470;47.324;8.548;2023-01-25T11:31:08;5.10;99.90
32811;DHT22;65470;47.324;8.548;2023-01-25T11:33:35;5.10;99.90
32811;DHT22;65470;47.324;8.548;2023-01-25T11:36:28;5.10;99.90
32811;DHT22;65470;47.324;8.548;2023-01-25T11:39:02;5.10;99.90
32811;DHT22;65470;47.324;8.548;2023-01-25T11:56:04;5.00;99.90
32811;DHT22;65470;47.324;8.548;2023-01-25T12:01:37;4.70;99.90
32811;DHT22;65470;47.324;8.548;2023-01-25T12:04:40;4.70;99.90
32811;DHT22;65470;47.324;8.548;2023-01-25T12:07:14;4.70;99.90
32811;DHT22;65470;47.324;8.548;2023-01-25T12:10:06;4.60;99.90
32811;DHT22;65470;47.324;8.548;2023-01-25T12:19:02;4.50;99.90
32811;DHT22;65470;47.324;8.548;2023-01-25T12:29:37;4.70;99.90
32811;DHT22;65470;47.324;8.548;2023-01-25T12:32:17;4.70;99.90
32811;DHT22;65470;47.324;8.548;2023-01-25T12:34:57;4.70;99.90
32811;DHT22;65470;47.324;8.548;2023-01-25T12:37:31;4.70;99.90
32811;DHT22;65470;47.324;8.548;2023-01-25T12:40:12;4.60;99.90
32811;DHT22;65470;47.324;8.548;2023-01-25T12:42:46;4.60;99.90
32811;DHT22;65470;47.324;8.548;2023-01-25T12:45:21;4.60;99.90
32811;DHT22;65470;47.324;8.548;2023-01-25T12:47:54;4.60;99.90
32811;DHT22;65470;47.324;8.548;2023-01-25T12:50:39;4.60;99.90
32811;DHT22;65470;47.324;8.548;2023-01-25T12:55:51;4.60;99.90
32811;DHT22;65470;47.324;8.548;2023-01-25T13:00:54;4.60;99.90
32811;DHT22;65470;47.324;8.548;2023-01-25T13:06:35;4.70;99.90
32811;DHT22;65470;47.324;8.548;2023-01-25T13:09:15;4.60;99.90
32811;DHT22;65470;47.324;8.548;2023-01-25T13:11:45;4.60;99.90
32811;DHT22;65470;47.324;8.548;2023-01-25T13:16:45;4.70;99.90
32811;DHT22;65470;47.324;8.548;2023-01-25T13:21:59;4.70;99.90
32811;DHT22;65470;47.324;8.548;2023-01-25T13:24:32;4.60;99.90
32811;DHT22;65470;47.324;8.548;2023-01-25T13:27:01;4.50;99.90
32811;DHT22;65470;47.324;8.548;2023-01-25T13:32:12;4.30;99.90
32811;DHT22;65470;47.324;8.548;2023-01-25T13:37:19;4.40;99.90
32811;DHT22;65470;47.324;8.548;2023-01-25T13:39:53;4.40;99.90
32811;DHT22;65470;47.324;8.548;2023-01-25T13:42:33;4.40;99.90
32811;DHT22;65470;47.324;8.548;2023-01-25T13:45:15;4.40;99.90
32811;DHT22;65470;47.324;8.548;2023-01-25T13:47:43;4.40;99.90
32811;DHT22;65470;47.324;8.548;2023-01-25T13:50:23;4.40;99.90
32811;DHT22;65470;47.324;8.548;2023-01-25T13:53:05;4.50;99.90
32811;DHT22;65470;47.324;8.548;2023-01-25T13:55:47;4.50;99.90
32811;DHT22;65470;47.324;8.548;2023-01-25T13:58:20;4.50;99.90
32811;DHT22;65470;47.324;8.548;2023-01-25T14:03:16;4.40;99.90
32811;DHT22;65470;47.324;8.548;2023-01-25T14:05:50;4.50;99.90
32811;DHT22;65470;47.324;8.548;2023-01-25T14:08:18;4.50;99.90
32811;DHT22;65470;47.324;8.548;2023-01-25T14:10:44;4.50;99.90
32811;DHT22;65470;47.324;8.548;2023-01-25T14:13:13;4.50;99.90
32811;DHT22;65470;47.324;8.548;2023-01-25T14:15:39;4.50;99.90
32811;DHT22;65470;47.324;8.548;2023-01-25T14:20:37;4.40;99.90
32811;DHT22;65470;47.324;8.548;2023-01-25T14:23:02;4.40;99.90
32811;DHT22;65470;47.324;8.548;2023-01-25T14:25:31;4.40;99.90
32811;DHT22;65470;47.324;8.548;2023-01-25T14:28:02;4.50;99.90
32811;DHT22;65470;47.324;8.548;2023-01-25T14:30:32;4.40;99.90
32811;DHT22;65470;47.324;8.548;2023-01-25T14:33:14;4.40;99.90
32811;DHT22;65470;47.324;8.548;2023-01-25T14:35:42;4.30;99.90
32811;DHT22;65470;47.324;8.548;2023-01-25T14:43:48;4.20;99.90
32811;DHT22;65470;47.324;8.548;2023-01-25T14:46:19;4.20;99.90
32811;DHT22;65470;47.324;8.548;2023-01-25T14:48:45;4.30;99.90
32811;DHT22;65470;47.324;8.548;2023-01-25T14:51:15;4.30;99.90
32811;DHT22;65470;47.324;8.548;2023-01-25T14:53:45;4.30;99.90
32811;DHT22;65470;47.324;8.548;2023-01-25T14:56:29;4.30;99.90
32811;DHT22;65470;47.324;8.548;2023-01-25T14:58:57;4.30;99.90
32811;DHT22;65470;47.324;8.548;2023-01-25T15:01:38;4.30;99.90
32811;DHT22;65470;47.324;8.548;2023-01-25T15:04:11;4.30;99.90
32811;DHT22;65470;47.324;8.548;2023-01-25T15:06:49;4.30;99.90
32811;DHT22;65470;47.324;8.548;2023-01-25T15:09:35;4.20;99.90
32811;DHT22;65470;47.324;8.548;2023-01-25T15:12:29;4.20;99.90
32811;DHT22;65470;47.324;8.548;2023-01-25T15:14:57;4.20;99.90
32811;DHT22;65470;47.324;8.548;2023-01-25T15:17:55;4.20;99.90
32811;DHT22;65470;47.324;8.548;2023-01-25T15:20:37;4.30;99.90
32811;DHT22;65470;47.324;8.548;2023-01-25T15:23:22;4.30;99.90
32811;DHT22;65470;47.324;8.548;2023-01-25T15:25:55;4.40;99.90
32811;DHT22;65470;47.324;8.548;2023-01-25T15:28:23;4.40;99.90
32811;DHT22;65470;47.324;8.548;2023-01-25T15:30:49;4.40;99.90
32811;DHT22;65470;47.324;8.548;2023-01-25T15:33:22;4.40;99.90
32811;DHT22;65470;47.324;8.548;2023-01-25T15:35:51;4.50;99.90
32811;DHT22;65470;47.324;8.548;2023-01-25T15:38:17;4.40;99.90
32811;DHT22;65470;47.324;8.548;2023-01-25T15:40:43;4.30;99.90
32811;DHT22;65470;47.324;8.548;2023-01-25T15:43:13;4.30;99.90
32811;DHT22;65470;47.324;8.548;2023-01-25T15:45:41;4.30;99.90
32811;DHT22;65470;47.324;8.548;2023-01-25T15:48:17;4.20;99.90
32811;DHT22;65470;47.324;8.548;2023-01-25T15:50:43;4.20;99.90
32811;DHT22;65470;47.324;8.548;2023-01-25T15:53:18;4.20;99.90
32811;DHT22;65470;47.324;8.548;2023-01-25T15:55:46;4.30;99.90
32811;DHT22;65470;47.324;8.548;2023-01-25T15:58:18;4.30;99.90
32811;DHT22;65470;47.324;8.548;2023-01-25T16:00:45;4.30;99.90
32811;DHT22;65470;47.324;8.548;2023-01-25T16:03:10;4.30;99.90
32811;DHT22;65470;47.324;8.548;2023-01-25T16:05:37;4.30;99.90
32811;DHT22;65470;47.324;8.548;2023-01-25T16:08:03;4.30;99.90
32811;DHT22;65470;47.324;8.548;2023-01-25T16:10:29;4.20;99.90
32811;DHT22;65470;47.324;8.548;2023-01-25T16:12:54;4.10;99.90
32811;DHT22;65470;47.324;8.548;2023-01-25T16:15:20;4.00;99.90
32811;DHT22;65470;47.324;8.548;2023-01-25T16:17:45;4.10;99.90
32811;DHT22;65470;47.324;8.548;2023-01-25T16:20:19;4.10;99.90
32811;DHT22;65470;47.324;8.548;2023-01-25T16:22:45;4.10;99.90
32811;DHT22;65470;47.324;8.548;2023-01-25T16:25:11;4.10;99.90
32811;DHT22;65470;47.324;8.548;2023-01-25T16:27:38;4.10;99.90
32811;DHT22;65470;47.324;8.548;2023-01-25T16:30:06;4.00;99.90
32811;DHT22;65470;47.324;8.548;2023-01-25T16:32:32;4.00;99.90
32811;DHT22;65470;47.324;8.548;2023-01-25T16:34:57;4.10;99.90
32811;DHT22;65470;47.324;8.548;2023-01-25T16:37:23;4.10;99.90
32811;DHT22;65470;47.324;8.548;2023-01-25T16:39:49;4.20;99.90
32811;DHT22;65470;47.324;8.548;2023-01-25T16:42:17;4.20;99.90
32811;DHT22;65470;47.324;8.548;2023-01-25T16:44:42;4.10;99.90
32811;DHT22;65470;47.324;8.548;2023-01-25T16:47:13;4.10;99.90
32811;DHT22;65470;47.324;8.548;2023-01-25T16:49:39;4.20;99.90
32811;DHT22;65470;47.324;8.548;2023-01-25T16:52:04;4.10;99.90
32811;DHT22;65470;47.324;8.548;2023-01-25T16:54:30;4.10;99.90
32811;DHT22;65470;47.324;8.548;2023-01-25T16:56:56;4.10;99.90
32811;DHT22;65470;47.324;8.548;2023-01-25T16:59:23;4.10;99.90
32811;DHT22;65470;47.324;8.548;2023-01-25T17:01:49;4.10;99.90
32811;DHT22;65470;47.324;8.548;2023-01-25T17:04:15;4.10;99.90
32811;DHT22;65470;47.324;8.548;2023-01-25T17:06:43;4.10;99.90
32811;DHT22;65470;47.324;8.548;2023-01-25T17:09:12;4.10;99.90
32811;DHT22;65470;47.324;8.548;2023-01-25T17:11:39;4.10;99.90
32811;DHT22;65470;47.324;8.548;2023-01-25T17:14:05;4.00;99.90
32811;DHT22;65470;47.324;8.548;2023-01-25T17:16:31;4.00;99.90
32811;DHT22;65470;47.324;8.548;2023-01-25T17:19:00;4.00;99.90
32811;DHT22;65470;47.324;8.548;2023-01-25T17:21:27;4.00;99.90
32811;DHT22;65470;47.324;8.548;2023-01-25T17:23:54;3.80;99.90
32811;DHT22;65470;47.324;8.548;2023-01-25T17:26:20;3.80;99.90
32811;DHT22;65470;47.324;8.548;2023-01-25T17:28:47;3.90;99.90
32811;DHT22;65470;47.324;8.548;2023-01-25T17:31:21;3.90;99.90
32811;DHT22;65470;47.324;8.548;2023-01-25T17:33:47;3.90;99.90